Time;durP1;ratioP1;P1;durP2;ratioP2;P2;SDS_P1;SDS_P2;PMS_P1;PMS_P2;Temp;Humidity;BMP_temperature;BMP_pressure;BME280_temperature;BME280_humidity;BME280_pressure;Samples;Min_cycle;Max_cycle;Signal;HPM_P1;HPM_P2
2022/08/12 00:43:34;;;;;;;10.23;9.43;;;;;;;20.22;100.00;99485.83;1736226;82;20943;-69
2022/08/12 00:48:45;;;;;;;11.35;10.20;;;;;;;20.20;100.00;99500.95;1731357;82;21433;-70
2022/08/12 00:51:12;;;;;;;10.78;9.98;;;;;;;20.18;100.00;99503.72;1743491;82;20938;-70
2022/08/12 00:53:39;;;;;;;11.45;10.45;;;;;;;20.17;100.00;99503.88;1733065;82;21011;-70
2022/08/12 00:56:08;;;;;;;11.25;9.80;;;;;;;20.16;100.00;99503.52;1726140;82;21458;-69
2022/08/12 00:58:35;;;;;;;9.90;9.20;;;;;;;20.14;100.00;99498.34;1729176;81;21191;-70
2022/08/12 01:01:07;;;;;;;10.75;9.85;;;;;;;20.15;100.00;99504.47;1731227;82;21096;-69
2022/08/12 01:11:52;;;;;;;11.18;10.13;;;;;;;20.11;100.00;99509.16;1740241;82;20970;-70
2022/08/12 01:14:22;;;;;;;10.28;9.48;;;;;;;20.10;100.00;99514.08;1725658;82;21755;-70
2022/08/12 01:16:52;;;;;;;13.00;9.88;;;;;;;20.10;100.00;99514.55;1732442;82;21014;-70
2022/08/12 01:19:20;;;;;;;11.88;10.80;;;;;;;20.09;100.00;99512.39;1729098;81;20989;-69
2022/08/12 01:22:04;;;;;;;11.45;10.45;;;;;;;20.10;100.00;99516.72;1749164;81;21061;-69
2022/08/12 01:25:08;;;;;;;9.93;9.13;;;;;;;20.10;100.00;99508.80;1733371;81;20995;-69
2022/08/12 01:27:38;;;;;;;10.18;9.38;;;;;;;20.07;100.00;99507.72;1724269;81;21648;-69
2022/08/12 01:30:08;;;;;;;12.10;10.78;;;;;;;20.03;100.00;99504.95;1738085;81;20950;-69
2022/08/12 01:32:36;;;;;;;12.30;11.03;;;;;;;20.03;100.00;99510.71;1748813;82;21002;-69
2022/08/12 01:35:13;;;;;;;11.95;10.85;;;;;;;20.03;100.00;99509.39;1725142;82;20972;-69
2022/08/12 01:37:47;;;;;;;10.75;9.75;;;;;;;20.02;100.00;99508.55;1745226;82;21484;-69
2022/08/12 01:40:15;;;;;;;11.05;9.93;;;;;;;20.01;100.00;99506.88;1749218;81;21234;-69
2022/08/12 01:42:48;;;;;;;11.93;10.95;;;;;;;19.99;100.00;99492.11;1736082;81;20947;-69
2022/08/12 01:45:16;;;;;;;13.00;10.63;;;;;;;19.95;100.00;99475.23;1737710;82;21414;-70
2022/08/12 01:47:51;;;;;;;10.95;9.85;;;;;;;19.94;100.00;99448.47;1735273;82;21077;-70
2022/08/12 01:50:41;;;;;;;11.63;10.58;;;;;;;19.90;100.00;99418.47;1729979;81;21058;-69
2022/08/12 01:53:10;;;;;;;11.57;10.60;;;;;;;19.80;100.00;99376.61;1722685;81;22180;-69
2022/08/12 01:55:42;;;;;;;11.12;10.05;;;;;;;19.67;100.00;99346.44;1740130;81;21045;-70
2022/08/12 01:58:23;;;;;;;10.95;9.75;;;;;;;19.62;100.00;99368.38;1734207;81;21105;-70
2022/08/12 02:00:58;;;;;;;10.65;9.70;;;;;;;19.60;100.00;99433.14;1743984;82;21025;-69
2022/08/12 02:13:22;;;;;;;11.48;10.25;;;;;;;19.61;100.00;99504.74;1743170;81;21002;-69
2022/08/12 02:15:58;;;;;;;11.50;10.30;;;;;;;19.66;100.00;99535.21;1734610;81;21158;-69
2022/08/12 02:18:44;;;;;;;12.55;11.22;;;;;;;19.69;100.00;99557.41;1739483;82;20967;-68
2022/08/12 02:21:22;;;;;;;13.55;11.12;;;;;;;19.72;100.00;99567.25;1741635;81;21158;-69
2022/08/12 02:23:49;;;;;;;10.50;9.10;;;;;;;19.73;100.00;99535.11;1712280;82;20999;-69
2022/08/12 02:26:16;;;;;;;10.75;8.15;;;;;;;19.64;100.00;99509.42;1738092;81;21049;-68
2022/08/12 02:28:43;;;;;;;12.68;8.03;;;;;;;19.46;100.00;99464.19;1709815;82;21018;-68
2022/08/12 02:31:10;;;;;;;9.88;7.47;;;;;;;19.28;100.00;99479.16;1707120;81;21009;-69
2022/08/12 02:33:37;;;;;;;11.43;8.35;;;;;;;19.15;100.00;99489.45;1730331;81;21696;-68
2022/08/12 02:36:05;;;;;;;14.55;7.97;;;;;;;19.08;100.00;99494.83;1721177;82;20981;-68
2022/08/12 02:38:31;;;;;;;13.93;7.78;;;;;;;18.98;100.00;99482.00;1744626;81;21040;-69
2022/08/12 02:41:01;;;;;;;7.92;7.12;;;;;;;18.82;100.00;99488.88;1728771;82;21003;-69
2022/08/12 02:43:48;;;;;;;8.60;7.80;;;;;;;18.65;100.00;99472.18;1725932;81;21009;-69
2022/08/12 02:46:18;;;;;;;9.00;7.97;;;;;;;18.52;100.00;99471.75;1723355;81;21086;-69
2022/08/12 02:49:02;;;;;;;8.83;7.78;;;;;;;18.50;100.00;99464.44;1706046;82;20966;-69
2022/08/12 02:51:34;;;;;;;11.10;7.72;;;;;;;18.51;100.00;99454.74;1725984;82;21451;-69
2022/08/12 02:54:02;;;;;;;11.30;9.10;;;;;;;18.52;100.00;99449.36;1743844;81;20978;-69
2022/08/12 02:56:29;;;;;;;8.85;7.90;;;;;;;18.51;100.00;99463.48;1738997;81;21108;-69
2022/08/12 02:58:59;;;;;;;10.38;7.90;;;;;;;18.51;100.00;99461.33;1723945;82;21079;-69
2022/08/12 03:01:32;;;;;;;8.90;8.00;;;;;;;18.51;100.00;99447.69;1726260;82;21415;-69
2022/08/12 03:04:02;;;;;;;8.35;7.65;;;;;;;18.53;100.00;99452.36;1747104;80;20993;-69
2022/08/12 03:06:46;;;;;;;8.70;7.90;;;;;;;18.57;100.00;99464.36;1725737;81;20997;-69
2022/08/12 03:09:14;;;;;;;7.83;7.03;;;;;;;18.62;100.00;99456.12;1719429;82;20962;-70
2022/08/12 03:11:53;;;;;;;9.03;8.18;;;;;;;18.66;100.00;99462.00;1733905;81;20910;-69
2022/08/12 03:14:20;;;;;;;10.38;8.35;;;;;;;18.68;100.00;99460.09;1728451;82;21010;-70
2022/08/12 03:16:50;;;;;;;9.00;8.15;;;;;;;18.72;100.00;99464.19;1736593;82;21093;-69
2022/08/12 03:19:20;;;;;;;7.95;7.25;;;;;;;18.74;100.00;99468.39;1737111;81;21089;-69
2022/08/12 03:21:50;;;;;;;8.65;7.70;;;;;;;18.77;100.00;99476.55;1745098;81;21062;-69
2022/08/12 03:24:17;;;;;;;8.88;7.97;;;;;;;18.84;100.00;99482.54;1740491;81;21150;-69
2022/08/12 03:26:45;;;;;;;9.55;8.65;;;;;;;18.89;100.00;99505.92;1731625;82;20978;-69
2022/08/12 03:29:13;;;;;;;11.08;8.70;;;;;;;18.92;100.00;99516.23;1734824;80;20948;-69
2022/08/12 03:31:39;;;;;;;8.98;8.18;;;;;;;18.91;100.00;99486.41;1738524;82;20995;-68
2022/08/12 03:34:08;;;;;;;9.85;8.70;;;;;;;18.93;100.00;99470.48;1719630;81;21619;-68
2022/08/12 03:36:37;;;;;;;9.85;8.95;;;;;;;18.93;100.00;99462.57;1741865;81;21844;-70
2022/08/12 03:42:01;;;;;;;10.32;9.28;;;;;;;18.97;100.00;99431.56;1730752;82;20975;-69
2022/08/12 04:01:51;;;;;;;10.45;9.45;;;;;;;19.20;100.00;99416.09;1730014;81;21062;-68
2022/08/12 04:04:16;;;;;;;9.98;9.00;;;;;;;19.23;100.00;99415.86;1727181;82;21820;-67
2022/08/12 04:06:46;;;;;;;10.15;9.13;;;;;;;19.25;100.00;99430.61;1743366;81;20960;-67
2022/08/12 04:09:13;;;;;;;10.72;9.83;;;;;;;19.26;100.00;99425.70;1733245;82;20962;-67
2022/08/12 04:14:26;;;;;;;10.82;9.93;;;;;;;19.26;100.00;99427.02;1735783;82;21421;-71
2022/08/12 04:32:42;;;;;;;12.03;11.10;;;;;;;19.13;100.00;99440.80;1798100;78;25835;-73
2022/08/12 04:36:24;;;;;;;11.57;10.48;;;;;;;19.09;100.00;99450.38;1760402;80;20978;-73
2022/08/12 04:38:53;;;;;;;11.68;10.45;;;;;;;19.10;100.00;99458.64;1763162;79;21140;-72
2022/08/12 04:45:51;;;;;;;11.00;10.10;;;;;;;19.16;100.00;99454.23;1766140;80;21150;-73
2022/08/12 04:48:18;;;;;;;10.18;9.38;;;;;;;19.28;100.00;99453.27;1759147;80;20997;-73
2022/08/12 04:55:13;;;;;;;12.30;10.32;;;;;;;19.40;100.00;99453.63;1763750;80;20918;-73
2022/08/12 04:57:45;;;;;;;11.15;10.03;;;;;;;19.48;100.00;99462.27;1756943;80;20919;-73
2022/08/12 05:04:40;;;;;;;11.43;10.53;;;;;;;19.56;100.00;99461.23;1775231;80;21037;-74
2022/08/12 05:07:11;;;;;;;11.50;10.50;;;;;;;19.66;100.00;99456.05;1751496;80;20951;-73
2022/08/12 05:14:05;;;;;;;12.37;9.78;;;;;;;19.86;100.00;99417.04;1761170;80;20921;-74
2022/08/12 05:16:36;;;;;;;11.55;10.38;;;;;;;20.10;100.00;99416.38;1757270;80;20954;-74
2022/08/12 05:23:31;;;;;;;14.03;12.90;;;;;;;20.41;100.00;99422.64;1753111;80;21498;-72
2022/08/12 05:25:58;;;;;;;11.95;10.25;;;;;;;20.59;100.00;99413.66;1744212;81;21151;-74
2022/08/12 05:33:05;;;;;;;12.40;10.10;;;;;;;20.84;100.00;99406.67;1708907;83;20934;-74
2022/08/12 05:51:23;;;;;;;13.25;10.48;;;;;;;20.95;100.00;99389.44;1730656;82;21524;-73
2022/08/12 15:29:22;;;;;;;15.13;13.08;;;;;;;18.14;100.00;99376.33;1759965;80;20931;-74
2022/08/12 15:31:49;;;;;;;17.37;13.53;;;;;;;18.22;100.00;99377.90;1764056;80;21305;-73
2022/08/12 15:34:17;;;;;;;17.87;12.47;;;;;;;18.29;100.00;99373.86;1752995;80;20970;-73
2022/08/12 15:36:43;;;;;;;13.25;11.85;;;;;;;18.39;100.00;99374.84;1747779;80;21054;-73
2022/08/12 15:39:10;;;;;;;16.10;11.85;;;;;;;18.49;100.00;99367.94;1753727;80;21468;-73
2022/08/12 15:41:37;;;;;;;13.60;11.43;;;;;;;18.58;100.00;99360.64;1761841;80;21122;-73
2022/08/12 15:44:05;;;;;;;12.30;10.65;;;;;;;18.68;100.00;99359.98;1775765;80;21140;-73
2022/08/12 15:46:32;;;;;;;12.98;11.53;;;;;;;18.81;100.00;99365.51;1769106;80;20998;-72
2022/08/12 15:48:58;;;;;;;12.93;11.35;;;;;;;18.96;100.00;99358.72;1749017;80;21483;-73
2022/08/12 15:51:33;;;;;;;15.28;11.88;;;;;;;19.06;100.00;99360.50;1762866;80;20967;-74
2022/08/12 15:54:06;;;;;;;13.00;11.68;;;;;;;19.18;100.00;99362.67;1756176;80;20986;-72
2022/08/12 15:56:36;;;;;;;13.80;11.65;;;;;;;19.31;100.00;99362.53;1754785;80;21231;-72
2022/08/12 15:59:03;;;;;;;14.43;11.35;;;;;;;19.40;100.00;99356.52;1768504;80;21465;-73
2022/08/12 16:01:29;;;;;;;12.78;11.48;;;;;;;19.45;100.00;99353.04;1761435;80;20934;-74
2022/08/12 16:03:56;;;;;;;13.00;11.70;;;;;;;19.52;100.00;99355.11;1755336;80;20963;-73
2022/08/12 16:06:23;;;;;;;12.85;11.55;;;;;;;19.59;100.00;99351.48;1760201;80;21108;-71
2022/08/12 16:08:51;;;;;;;12.85;11.60;;;;;;;19.64;100.00;99345.36;1758474;80;21498;-72
2022/08/12 16:11:20;;;;;;;13.35;12.05;;;;;;;19.73;100.00;99343.79;1753203;80;20880;-71
2022/08/12 16:13:47;;;;;;;15.95;12.75;;;;;;;19.77;100.00;99335.50;1753411;80;21419;-73
2022/08/12 16:16:14;;;;;;;12.80;11.50;;;;;;;19.80;100.00;99333.91;1767645;80;21037;-73
2022/08/12 16:18:41;;;;;;;11.75;10.53;;;;;;;19.81;100.00;99330.79;1769306;80;20962;-73
2022/08/12 16:21:09;;;;;;;14.23;12.18;;;;;;;19.78;100.00;99335.86;1767134;80;21193;-73
2022/08/12 16:23:37;;;;;;;16.12;11.88;;;;;;;19.79;100.00;99328.27;1755541;80;21016;-73
2022/08/12 16:26:06;;;;;;;14.13;11.70;;;;;;;19.80;100.00;99321.19;1725080;81;21061;-73
2022/08/12 16:28:36;;;;;;;12.65;11.33;;;;;;;19.82;100.00;99313.99;1748635;81;20908;-73
2022/08/12 16:31:03;;;;;;;12.53;11.28;;;;;;;19.86;100.00;99319.38;1744313;81;21011;-73
2022/08/12 16:33:35;;;;;;;13.53;11.10;;;;;;;19.88;100.00;99314.82;1715327;81;21311;-74
2022/08/12 16:36:04;;;;;;;13.22;11.60;;;;;;;19.89;100.00;99311.22;1738608;81;20953;-75
2022/08/12 16:38:31;;;;;;;12.82;11.53;;;;;;;19.92;100.00;99305.20;1730668;81;21571;-74
2022/08/12 16:40:57;;;;;;;13.68;11.28;;;;;;;19.94;100.00;99305.92;1740726;81;20956;-71
2022/08/12 16:43:27;;;;;;;16.65;12.33;;;;;;;20.00;100.00;99309.00;1733887;81;20962;-70
2022/08/12 16:46:00;;;;;;;13.62;12.28;;;;;;;20.02;100.00;99307.07;1712101;81;21216;-73
2022/08/12 16:48:28;;;;;;;13.35;11.50;;;;;;;20.03;100.00;99311.39;1733045;81;21561;-73
2022/08/12 16:50:59;;;;;;;14.47;12.53;;;;;;;20.06;100.00;99319.90;1735620;81;20996;-74
2022/08/12 16:53:41;;;;;;;12.73;11.55;;;;;;;20.10;100.00;99322.64;1729156;81;20982;-73
2022/08/12 16:56:11;;;;;;;12.80;11.48;;;;;;;20.14;100.00;99329.35;1738203;82;20937;-72
2022/08/12 16:58:38;;;;;;;14.03;12.60;;;;;;;20.14;100.00;99340.40;1717874;81;21146;-72
2022/08/12 17:01:10;;;;;;;13.75;12.45;;;;;;;20.11;100.00;99341.48;1748129;81;20943;-72
2022/08/12 17:03:36;;;;;;;12.55;11.35;;;;;;;20.10;100.00;99338.48;1730739;82;21488;-72
2022/08/12 17:06:01;;;;;;;15.55;11.93;;;;;;;20.07;100.00;99342.70;1718355;82;20958;-73
2022/08/12 17:08:29;;;;;;;13.10;11.85;;;;;;;20.07;100.00;99347.98;1723876;81;21014;-72
2022/08/12 17:10:55;;;;;;;13.22;11.93;;;;;;;20.05;100.00;99348.58;1724184;82;21940;-73
2022/08/12 17:13:25;;;;;;;13.32;12.00;;;;;;;20.06;100.00;99349.42;1712105;82;20987;-73
2022/08/12 17:15:52;;;;;;;12.53;11.30;;;;;;;20.04;100.00;99352.19;1709988;81;21025;-73
2022/08/12 17:18:21;;;;;;;13.45;11.93;;;;;;;20.06;100.00;99353.37;1745287;81;20964;-71
2022/08/12 17:20:50;;;;;;;13.22;12.03;;;;;;;20.09;100.00;99344.73;1718665;82;21026;-71
2022/08/12 17:23:19;;;;;;;15.08;13.03;;;;;;;20.10;100.00;99343.77;1740600;82;21243;-73
2022/08/12 17:25:54;;;;;;;13.62;12.23;;;;;;;20.11;100.00;99344.13;1709004;82;21014;-72
2022/08/12 17:28:24;;;;;;;17.82;12.80;;;;;;;20.11;100.00;99336.69;1717238;81;21014;-73
2022/08/12 17:30:52;;;;;;;13.62;12.33;;;;;;;20.11;100.00;99336.69;1709704;81;21039;-72
2022/08/12 17:33:21;;;;;;;13.70;12.35;;;;;;;20.12;100.00;99330.44;1721224;82;20967;-72
2022/08/12 17:35:52;;;;;;;15.70;13.70;;;;;;;20.15;100.00;99330.19;1724622;82;21239;-72
2022/08/12 17:38:21;;;;;;;18.37;14.05;;;;;;;20.15;100.00;99335.47;1727045;81;21473;-72
2022/08/12 17:40:50;;;;;;;14.70;13.30;;;;;;;20.14;100.00;99326.71;1693330;82;20958;-72
2022/08/12 17:43:22;;;;;;;16.37;13.50;;;;;;;20.17;100.00;99328.27;1728707;81;21053;-73
2022/08/12 17:45:51;;;;;;;15.85;13.75;;;;;;;20.18;100.00;99324.66;1742816;81;20992;-72
2022/08/12 17:48:20;;;;;;;14.50;13.18;;;;;;;20.19;100.00;99322.34;1733041;81;21753;-72
2022/08/12 17:50:50;;;;;;;14.65;13.30;;;;;;;20.20;100.00;99326.18;1742187;81;20988;-73
2022/08/12 17:53:19;;;;;;;15.40;13.83;;;;;;;20.25;100.00;99327.12;1740974;82;21003;-72
2022/08/12 17:55:49;;;;;;;16.80;13.28;;;;;;;20.29;100.00;99324.59;1720619;81;21031;-72
2022/08/12 17:58:30;;;;;;;14.10;12.80;;;;;;;20.33;100.00;99318.57;1742473;81;20972;-73
2022/08/12 18:00:52;;;;;;;15.10;13.40;;;;;;;20.33;100.00;99315.93;1733971;81;21366;-73
2022/08/12 18:03:22;;;;;;;14.33;12.43;;;;;;;20.26;100.00;99320.88;1730715;81;20940;-73
2022/08/12 18:05:51;;;;;;;13.20;12.10;;;;;;;20.16;100.00;99318.66;1708280;81;20994;-72
2022/08/12 18:08:20;;;;;;;14.73;13.22;;;;;;;20.11;100.00;99320.84;1730669;82;20951;-72
2022/08/12 18:13:33;;;;;;;12.90;11.60;;;;;;;20.06;100.00;99313.78;1721260;82;21813;-73
2022/08/12 18:16:04;;;;;;;13.60;12.33;;;;;;;20.04;100.00;99314.38;1722048;82;20946;-73
2022/08/12 18:18:37;;;;;;;15.32;12.23;;;;;;;19.98;100.00;99318.39;1715294;82;20904;-74
2022/08/12 18:21:06;;;;;;;13.22;11.90;;;;;;;19.96;100.00;99321.64;1737560;81;20985;-73
2022/08/12 18:23:30;;;;;;;14.40;13.05;;;;;;;19.95;100.00;99320.80;1733265;81;21025;-73
2022/08/12 18:28:41;;;;;;;13.88;12.55;;;;;;;20.00;100.00;99328.31;1749027;81;20963;-72
2022/08/12 18:31:16;;;;;;;14.23;12.65;;;;;;;20.04;100.00;99331.06;1727163;82;21066;-73
2022/08/12 18:33:45;;;;;;;14.38;12.82;;;;;;;20.10;100.00;99331.05;1742037;81;21050;-73
2022/08/12 18:36:12;;;;;;;18.92;13.72;;;;;;;20.16;100.00;99340.63;1741982;81;21083;-73
2022/08/12 18:38:40;;;;;;;14.47;13.18;;;;;;;20.21;100.00;99336.27;1734288;81;21912;-73
2022/08/12 18:44:12;;;;;;;14.95;13.32;;;;;;;20.29;100.00;99335.99;1702654;81;21010;-72
2022/08/12 18:46:49;;;;;;;16.52;12.68;;;;;;;20.33;100.00;99340.54;1707392;82;21024;-73
2022/08/12 18:49:18;;;;;;;15.45;13.32;;;;;;;20.36;100.00;99333.69;1707823;82;21073;-73
2022/08/12 18:51:56;;;;;;;14.05;12.50;;;;;;;20.37;100.00;99331.91;1736046;81;21565;-73
2022/08/12 18:54:25;;;;;;;16.60;13.83;;;;;;;20.39;100.00;99337.87;1730700;81;20995;-73
2022/08/12 18:56:59;;;;;;;15.45;13.50;;;;;;;20.42;100.00;99332.34;1732127;81;21055;-73
2022/08/12 18:59:27;;;;;;;15.32;13.90;;;;;;;20.46;100.00;99332.45;1748457;81;21083;-72
2022/08/12 19:01:55;;;;;;;14.98;13.40;;;;;;;20.45;100.00;99335.57;1721010;82;21482;-73
2022/08/12 19:04:25;;;;;;;15.50;13.90;;;;;;;20.47;100.00;99331.00;1734800;82;21239;-73
2022/08/12 19:06:52;;;;;;;15.48;14.00;;;;;;;20.48;100.00;99331.35;1730036;81;21034;-72
2022/08/12 19:09:19;;;;;;;15.38;13.90;;;;;;;20.49;100.00;99329.06;1727641;82;20972;-73
2022/08/12 19:14:34;;;;;;;14.30;13.00;;;;;;;20.52;100.00;99326.66;1740959;82;21026;-73
2022/08/12 19:17:03;;;;;;;15.45;14.15;;;;;;;20.53;100.00;99315.95;1717498;81;21153;-74
2022/08/12 19:19:33;;;;;;;13.93;12.60;;;;;;;20.55;100.00;99315.83;1708936;81;20994;-74
2022/08/12 19:22:02;;;;;;;15.38;13.88;;;;;;;20.57;100.00;99312.09;1713594;81;21789;-74
2022/08/12 19:27:25;;;;;;;15.35;13.85;;;;;;;20.61;100.00;99312.16;1727120;81;21015;-73
2022/08/12 19:29:56;;;;;;;16.10;14.25;;;;;;;20.64;100.00;99309.74;1741251;82;21138;-73
2022/08/12 19:32:24;;;;;;;15.18;13.78;;;;;;;20.65;100.00;99306.13;1740497;81;21004;-73
2022/08/12 19:34:55;;;;;;;14.83;13.53;;;;;;;20.68;100.00;99301.07;1726702;81;21475;-73
2022/08/12 19:37:28;;;;;;;15.68;14.15;;;;;;;20.68;100.00;99295.30;1722935;81;21023;-72
2022/08/12 19:39:59;;;;;;;14.95;13.50;;;;;;;20.68;100.00;99291.83;1724313;81;21059;-74
2022/08/12 19:42:29;;;;;;;14.47;13.08;;;;;;;20.67;100.00;99290.98;1725937;81;21899;-73
2022/08/12 19:45:00;;;;;;;14.50;13.20;;;;;;;20.69;100.00;99287.73;1723965;81;20992;-73
2022/08/12 19:47:29;;;;;;;14.87;13.48;;;;;;;20.69;100.00;99290.38;1736998;81;21008;-73
2022/08/12 19:49:59;;;;;;;15.30;13.80;;;;;;;20.70;100.00;99285.44;1719858;81;21632;-73
2022/08/12 19:52:32;;;;;;;14.03;12.82;;;;;;;20.72;100.00;99283.50;1726026;81;20999;-74
2022/08/12 19:55:00;;;;;;;15.13;13.55;;;;;;;20.74;100.00;99278.09;1717921;82;21163;-73
2022/08/12 19:57:35;;;;;;;14.18;12.80;;;;;;;20.74;100.00;99275.45;1731173;82;20940;-73
2022/08/12 20:00:08;;;;;;;15.03;12.58;;;;;;;20.73;100.00;99275.93;1728800;81;21449;-73
2022/08/12 20:02:35;;;;;;;13.72;12.63;;;;;;;20.70;100.00;99276.19;1727465;82;21482;-73
2022/08/12 20:05:05;;;;;;;14.53;13.20;;;;;;;20.68;100.00;99274.16;1722957;81;21029;-73
2022/08/12 20:07:33;;;;;;;15.28;12.90;;;;;;;20.65;100.00;99277.06;1724178;82;21936;-74
2022/08/12 20:10:00;;;;;;;14.53;13.18;;;;;;;20.63;100.00;99267.95;1716641;81;21071;-74
2022/08/12 20:12:31;;;;;;;14.18;12.73;;;;;;;20.61;100.00;99264.59;1720848;82;20969;-73
2022/08/12 20:14:55;;;;;;;14.25;13.00;;;;;;;20.61;100.00;99272.52;1722159;82;21457;-73
2022/08/12 20:17:24;;;;;;;14.15;12.85;;;;;;;20.61;100.00;99280.45;1711847;82;21106;-73
2022/08/12 20:19:53;;;;;;;17.23;12.25;;;;;;;20.62;100.00;99278.64;1726099;81;21195;-73
2022/08/12 20:22:22;;;;;;;14.80;13.15;;;;;;;20.61;100.00;99280.93;1709876;82;20946;-73
2022/08/12 20:24:49;;;;;;;12.93;11.83;;;;;;;20.61;100.00;99284.89;1718324;81;21406;-73
2022/08/12 20:27:16;;;;;;;17.95;12.80;;;;;;;20.60;100.00;99281.41;1707466;81;21008;-73
2022/08/12 20:29:43;;;;;;;14.35;12.68;;;;;;;20.61;100.00;99282.25;1729655;82;21059;-73
2022/08/12 20:32:13;;;;;;;14.43;12.98;;;;;;;20.61;100.00;99284.89;1713908;81;21136;-73
2022/08/12 20:34:41;;;;;;;15.18;13.98;;;;;;;20.60;100.00;99284.55;1724987;81;21246;-73
2022/08/12 20:37:09;;;;;;;14.70;13.10;;;;;;;20.57;100.00;99289.63;1728958;81;21118;-74
2022/08/12 20:39:36;;;;;;;14.53;13.08;;;;;;;20.56;100.00;99291.92;1720953;81;21006;-74
2022/08/12 20:42:07;;;;;;;14.00;12.25;;;;;;;20.54;100.00;99297.81;1727088;81;21028;-73
2022/08/12 20:44:37;;;;;;;13.93;12.58;;;;;;;20.53;100.00;99296.14;1729474;81;21251;-74
2022/08/12 20:47:07;;;;;;;14.78;13.40;;;;;;;20.54;100.00;99294.34;1730849;81;21495;-73
2022/08/12 20:49:38;;;;;;;14.25;12.75;;;;;;;20.54;100.00;99292.53;1741963;81;21094;-73
2022/08/12 20:52:13;;;;;;;14.18;12.28;;;;;;;20.57;100.00;99298.05;1721193;81;21153;-73
2022/08/12 20:54:46;;;;;;;13.40;12.07;;;;;;;20.59;100.00;99294.27;1735999;81;20968;-74
2022/08/12 20:57:10;;;;;;;13.90;12.47;;;;;;;20.61;100.00;99300.75;1727545;81;21566;-73
2022/08/12 20:59:39;;;;;;;13.93;12.58;;;;;;;20.62;100.00;99305.91;1705583;82;21010;-73
2022/08/12 21:02:07;;;;;;;13.68;12.47;;;;;;;20.63;100.00;99299.66;1730587;81;21025;-73
2022/08/12 21:07:18;;;;;;;12.55;11.50;;;;;;;20.65;100.00;99306.13;1730945;82;20952;-73
2022/08/12 21:09:47;;;;;;;13.08;11.95;;;;;;;20.66;100.00;99301.20;1725477;82;21545;-73
2022/08/12 21:12:17;;;;;;;15.58;12.53;;;;;;;20.69;100.00;99297.46;1725249;81;20969;-73
2022/08/12 21:14:47;;;;;;;13.50;12.20;;;;;;;20.70;100.00;99300.45;1707037;83;20977;-73
2022/08/12 21:17:17;;;;;;;14.45;12.90;;;;;;;20.71;100.00;99298.17;1714776;83;21530;-73
2022/08/12 21:19:44;;;;;;;15.48;12.80;;;;;;;20.71;100.00;99292.89;1722336;81;21018;-73
2022/08/12 21:22:11;;;;;;;14.30;12.85;;;;;;;20.71;100.00;99288.92;1725841;81;21108;-73
2022/08/12 21:24:40;;;;;;;14.70;13.18;;;;;;;20.71;100.00;99300.81;1743366;81;21051;-72
2022/08/12 21:27:06;;;;;;;12.70;11.60;;;;;;;20.70;100.00;99292.53;1733963;81;21074;-73
2022/08/12 21:29:33;;;;;;;12.47;11.38;;;;;;;20.68;100.00;99291.34;1723938;81;21010;-73
2022/08/12 21:32:00;;;;;;;14.87;11.40;;;;;;;20.66;100.00;99297.72;1732612;82;21484;-73
2022/08/12 21:34:30;;;;;;;13.03;11.68;;;;;;;20.64;100.00;99305.78;1720962;82;21179;-74
2022/08/12 21:37:01;;;;;;;12.60;11.48;;;;;;;20.62;100.00;99312.52;1704950;81;20958;-74
2022/08/12 21:39:27;;;;;;;13.28;11.93;;;;;;;20.59;100.00;99316.73;1718835;81;21571;-73
2022/08/12 21:41:56;;;;;;;12.65;10.85;;;;;;;20.58;100.00;99324.30;1734286;81;21108;-74
2022/08/12 21:44:26;;;;;;;12.45;11.08;;;;;;;20.56;100.00;99326.75;1731947;81;21111;-74
2022/08/12 21:46:53;;;;;;;12.35;11.12;;;;;;;20.53;100.00;99325.20;1729954;81;21129;-74
2022/08/12 21:49:20;;;;;;;12.50;11.30;;;;;;;20.51;100.00;99334.22;1723965;81;20962;-73
2022/08/12 21:51:51;;;;;;;17.00;11.00;;;;;;;20.47;100.00;99325.71;1706187;81;21072;-74
2022/08/12 21:54:20;;;;;;;14.83;11.10;;;;;;;20.44;100.00;99335.21;1716432;81;20986;-74
2022/08/12 21:56:46;;;;;;;12.98;10.80;;;;;;;20.41;100.00;99326.70;1718077;82;21731;-74
2022/08/12 21:59:14;;;;;;;12.13;10.95;;;;;;;20.38;100.00;99344.16;1742040;82;21494;-74
2022/08/12 22:01:42;;;;;;;14.35;11.57;;;;;;;20.35;100.00;99356.27;1738712;81;20959;-74
2022/08/12 22:06:55;;;;;;;12.43;11.18;;;;;;;20.32;100.00;99340.19;1725472;81;20966;-74
2022/08/12 22:09:24;;;;;;;12.18;10.23;;;;;;;20.30;100.00;99339.47;1713546;81;21035;-74
2022/08/12 22:11:53;;;;;;;11.55;10.03;;;;;;;20.27;100.00;99330.48;1749330;82;21087;-74
2022/08/12 22:14:20;;;;;;;10.80;9.80;;;;;;;20.25;100.00;99336.37;1729665;81;20960;-74
2022/08/12 22:16:48;;;;;;;10.72;9.73;;;;;;;20.23;100.00;99325.93;1744253;82;21463;-74
2022/08/12 22:19:18;;;;;;;9.60;8.80;;;;;;;20.22;100.00;99337.94;1728960;81;21587;-74
2022/08/12 22:21:43;;;;;;;10.20;9.25;;;;;;;20.22;100.00;99333.98;1733170;82;21011;-75
2022/08/12 22:24:13;;;;;;;10.10;9.20;;;;;;;20.19;100.00;99336.87;1726228;81;22121;-74
2022/08/12 22:26:38;;;;;;;10.90;8.80;;;;;;;20.17;100.00;99323.82;1740148;81;20944;-74
2022/08/12 22:31:53;;;;;;;8.88;8.00;;;;;;;20.12;100.00;99322.52;1738430;82;21049;-74
2022/08/12 22:34:20;;;;;;;8.58;7.60;;;;;;;20.11;100.00;99323.48;1722919;82;20944;-74
2022/08/12 22:36:48;;;;;;;9.88;8.28;;;;;;;20.08;100.00;99319.29;1732092;81;21825;-74
2022/08/12 22:39:16;;;;;;;8.43;7.62;;;;;;;20.05;100.00;99314.26;1740356;82;21009;-74
2022/08/12 22:50:02;;;;;;;7.95;7.17;;;;;;;19.85;100.00;99296.11;1723467;81;21885;-74
2022/08/12 22:52:26;;;;;;;8.30;7.37;;;;;;;19.80;100.00;99289.52;1727769;82;21007;-74
2022/08/12 22:54:53;;;;;;;8.03;7.22;;;;;;;19.77;100.00;99287.17;1706917;82;21413;-74
2022/08/12 22:57:19;;;;;;;7.80;7.00;;;;;;;19.73;100.00;99282.61;1729228;82;21013;-74
2022/08/12 22:59:45;;;;;;;8.28;7.08;;;;;;;19.71;100.00;99282.38;1722769;82;21008;-74
2022/08/12 23:02:12;;;;;;;7.78;6.97;;;;;;;19.69;100.00;99270.63;1732116;82;21773;-74
2022/08/12 23:04:39;;;;;;;8.48;7.70;;;;;;;19.68;100.00;99256.24;1721039;82;21471;-74
2022/08/12 23:07:05;;;;;;;8.58;7.50;;;;;;;19.66;100.00;99255.05;1702990;82;21076;-74
2022/08/12 23:09:33;;;;;;;8.35;6.47;;;;;;;19.65;100.00;99249.89;1737670;81;21030;-74
2022/08/12 23:12:00;;;;;;;7.40;6.70;;;;;;;19.64;100.00;99250.86;1748797;81;20967;-74
2022/08/12 23:14:27;;;;;;;7.78;6.62;;;;;;;19.59;100.00;99255.19;1733389;81;21120;-74
2022/08/12 23:16:54;;;;;;;8.33;7.47;;;;;;;19.57;100.00;99253.18;1727419;81;21058;-74
2022/08/12 23:19:30;;;;;;;8.00;7.22;;;;;;;19.54;100.00;99245.03;1706144;81;21101;-74
2022/08/12 23:22:01;;;;;;;9.30;7.30;;;;;;;19.53;100.00;99243.36;1726368;81;21019;-74
2022/08/12 23:24:30;;;;;;;7.22;6.40;;;;;;;19.50;100.00;99234.37;1711284;81;21580;-74
2022/08/12 23:29:43;;;;;;;7.20;6.60;;;;;;;19.46;100.00;99202.58;1725006;81;21072;-74
2022/08/12 23:32:12;;;;;;;7.75;7.05;;;;;;;19.48;100.00;99210.36;1737900;82;21043;-74
2022/08/12 23:34:40;;;;;;;7.55;6.85;;;;;;;19.46;100.00;99211.80;1716509;81;20981;-74
2022/08/12 23:37:08;;;;;;;7.70;6.92;;;;;;;19.44;100.00;99213.73;1732714;82;21024;-74
2022/08/12 23:39:36;;;;;;;7.67;6.87;;;;;;;19.43;100.00;99228.36;1728913;81;21498;-74
2022/08/12 23:42:06;;;;;;;8.45;6.75;;;;;;;19.40;100.00;99231.23;1710701;82;21532;-73
2022/08/12 23:44:34;;;;;;;7.22;6.60;;;;;;;19.37;100.00;99236.31;1736300;81;21081;-74
2022/08/12 23:47:08;;;;;;;7.80;6.80;;;;;;;19.33;100.00;99235.36;1717974;82;21014;-74
2022/08/12 23:49:36;;;;;;;12.53;7.58;;;;;;;19.31;100.00;99238.12;1709702;81;21065;-74
2022/08/12 23:52:07;;;;;;;8.10;7.40;;;;;;;19.28;100.00;99231.77;1736949;81;21172;-74
2022/08/12 23:54:35;;;;;;;7.10;6.40;;;;;;;19.26;100.00;99220.02;1705397;82;21569;-74
2022/08/12 23:57:09;;;;;;;7.55;6.80;;;;;;;19.24;100.00;99216.67;1732208;81;20956;-74
2022/08/12 23:59:34;;;;;;;7.92;7.22;;;;;;;19.22;100.00;99216.44;1739061;82;21012;-74
